Time;durP1;ratioP1;P1;durP2;ratioP2;P2;SDS_P1;SDS_P2;PMS_P1;PMS_P2;Temp;Humidity;BMP_temperature;BMP_pressure;BME280_temperature;BME280_humidity;BME280_pressure;Samples;Min_cycle;Max_cycle;Signal;HPM_P1;HPM_P2
2023/07/17 00:01:35;;;;;;;5.50;2.42;;;;;;;;;;4979814;28;20276;-59
2023/07/17 00:04:01;;;;;;;5.68;2.80;;;;;;;;;;4978890;28;20215;-60
2023/07/17 00:06:26;;;;;;;6.18;2.90;;;;;;;;;;4974542;28;20283;-59
2023/07/17 00:08:51;;;;;;;6.22;2.50;;;;;;;;;;4957715;28;20670;-59
2023/07/17 00:11:16;;;;;;;6.13;2.55;;;;;;;;;;4972126;28;20702;-59
2023/07/17 00:13:42;;;;;;;6.60;2.40;;;;;;;;;;4981168;28;20252;-59
2023/07/17 00:16:07;;;;;;;8.63;2.75;;;;;;;;;;4978032;28;20209;-59
2023/07/17 00:18:34;;;;;;;6.60;2.45;;;;;;;;;;4980581;28;20217;-59
2023/07/17 00:21:00;;;;;;;5.57;2.47;;;;;;;;;;4980756;28;20220;-58
2023/07/17 00:23:26;;;;;;;7.90;2.53;;;;;;;;;;4979106;28;20213;-59
2023/07/17 00:25:52;;;;;;;6.20;2.65;;;;;;;;;;4979313;28;20622;-58
2023/07/17 00:28:17;;;;;;;10.05;2.85;;;;;;;;;;4974339;28;20252;-59
2023/07/17 00:30:43;;;;;;;5.15;2.47;;;;;;;;;;4973553;28;20213;-59
2023/07/17 00:33:09;;;;;;;6.55;2.70;;;;;;;;;;4969700;28;20296;-59
2023/07/17 00:35:34;;;;;;;7.65;2.78;;;;;;;;;;4977552;28;21352;-59
2023/07/17 00:37:59;;;;;;;8.07;2.88;;;;;;;;;;4980325;28;20220;-59
2023/07/17 00:40:25;;;;;;;6.30;3.00;;;;;;;;;;4979025;28;20263;-59
2023/07/17 00:42:50;;;;;;;9.00;3.00;;;;;;;;;;4978772;28;20217;-59
2023/07/17 00:45:15;;;;;;;6.60;3.38;;;;;;;;;;4979477;28;20228;-58
2023/07/17 00:47:41;;;;;;;8.18;3.10;;;;;;;;;;4983794;28;20299;-58
2023/07/17 00:50:06;;;;;;;7.18;3.28;;;;;;;;;;4985948;28;20271;-59
2023/07/17 00:52:32;;;;;;;6.30;2.90;;;;;;;;;;4972006;28;20217;-59
2023/07/17 00:54:57;;;;;;;7.57;3.33;;;;;;;;;;4972214;28;20217;-59
2023/07/17 00:57:23;;;;;;;6.45;2.95;;;;;;;;;;4986404;28;20217;-59
2023/07/17 00:59:48;;;;;;;7.43;3.17;;;;;;;;;;4972166;28;20215;-59
2023/07/17 01:02:13;;;;;;;7.80;3.30;;;;;;;;;;4989560;28;20217;-59
2023/07/17 01:04:43;;;;;;;8.73;3.35;;;;;;;;;;4987667;28;20225;-59
2023/07/17 01:07:08;;;;;;;7.70;3.50;;;;;;;;;;4988075;28;20209;-59
2023/07/17 01:09:34;;;;;;;8.25;3.17;;;;;;;;;;4989346;28;20235;-59
2023/07/17 01:11:59;;;;;;;8.63;3.60;;;;;;;;;;4971404;28;20209;-59
2023/07/17 01:14:25;;;;;;;9.25;3.45;;;;;;;;;;4986421;28;20614;-59
2023/07/17 01:16:50;;;;;;;7.95;3.88;;;;;;;;;;4989739;28;20819;-59
2023/07/17 01:19:15;;;;;;;7.97;3.45;;;;;;;;;;4988133;28;20681;-59
2023/07/17 01:21:44;;;;;;;8.55;3.60;;;;;;;;;;4987792;28;20256;-59
2023/07/17 01:24:09;;;;;;;7.10;3.50;;;;;;;;;;4988081;28;20275;-59
2023/07/17 01:26:34;;;;;;;7.40;3.42;;;;;;;;;;4988713;28;20566;-58
2023/07/17 01:29:00;;;;;;;7.43;3.65;;;;;;;;;;4988371;28;20574;-59
2023/07/17 01:31:25;;;;;;;8.88;3.53;;;;;;;;;;4986212;28;20738;-58
2023/07/17 01:33:51;;;;;;;7.78;3.55;;;;;;;;;;4989291;28;20231;-58
2023/07/17 01:36:16;;;;;;;8.25;3.60;;;;;;;;;;4988916;28;20228;-58
2023/07/17 01:38:41;;;;;;;8.77;3.67;;;;;;;;;;4985980;28;21377;-58
2023/07/17 01:41:07;;;;;;;10.13;4.05;;;;;;;;;;4988540;28;20261;-60
2023/07/17 01:43:32;;;;;;;6.53;3.17;;;;;;;;;;4989055;28;20684;-59
2023/07/17 01:45:58;;;;;;;7.68;3.90;;;;;;;;;;4978313;28;20239;-58
2023/07/17 01:48:23;;;;;;;8.30;3.22;;;;;;;;;;4972937;28;20219;-59
2023/07/17 01:50:48;;;;;;;6.47;3.03;;;;;;;;;;4971123;28;20586;-59
2023/07/17 01:53:17;;;;;;;8.10;3.40;;;;;;;;;;4969731;28;20228;-59
2023/07/17 01:55:42;;;;;;;9.05;3.78;;;;;;;;;;4975050;28;20833;-59
2023/07/17 01:58:08;;;;;;;6.88;3.42;;;;;;;;;;4978458;28;20205;-59
2023/07/17 02:00:33;;;;;;;6.97;3.20;;;;;;;;;;4978057;28;20240;-59
2023/07/17 02:02:59;;;;;;;7.35;3.33;;;;;;;;;;4977206;28;20700;-58
2023/07/17 02:05:24;;;;;;;7.93;3.40;;;;;;;;;;4978070;28;20701;-58
2023/07/17 02:07:49;;;;;;;8.63;3.40;;;;;;;;;;4978124;28;20231;-58
2023/07/17 02:10:15;;;;;;;8.55;3.25;;;;;;;;;;4974431;28;20275;-59
2023/07/17 02:12:40;;;;;;;8.57;3.40;;;;;;;;;;4956887;28;20221;-59
2023/07/17 02:15:06;;;;;;;8.02;3.35;;;;;;;;;;4969488;28;20243;-59
2023/07/17 02:17:31;;;;;;;7.05;3.30;;;;;;;;;;4973999;28;20653;-59
2023/07/17 02:19:56;;;;;;;8.18;3.45;;;;;;;;;;4976504;28;20205;-59
2023/07/17 02:22:22;;;;;;;8.10;3.20;;;;;;;;;;4978123;28;20638;-59
2023/07/17 02:24:47;;;;;;;8.38;3.38;;;;;;;;;;4978458;28;20588;-59
2023/07/17 02:27:12;;;;;;;8.23;3.60;;;;;;;;;;4976829;28;20221;-59
2023/07/17 02:29:38;;;;;;;5.65;3.17;;;;;;;;;;4976881;28;20228;-59
2023/07/17 02:32:03;;;;;;;10.25;3.30;;;;;;;;;;4977559;28;20512;-59
2023/07/17 02:34:29;;;;;;;7.78;3.50;;;;;;;;;;4970376;28;21013;-59
2023/07/17 02:36:54;;;;;;;8.10;3.45;;;;;;;;;;4969139;28;21344;-59
2023/07/17 02:39:20;;;;;;;5.78;2.95;;;;;;;;;;4970590;28;20696;-59
2023/07/17 02:41:46;;;;;;;7.63;3.38;;;;;;;;;;4977620;28;20213;-59
2023/07/17 02:44:11;;;;;;;8.18;3.83;;;;;;;;;;4975355;28;20216;-59
2023/07/17 02:46:37;;;;;;;9.05;3.25;;;;;;;;;;4978146;28;20252;-59
2023/07/17 02:49:02;;;;;;;9.25;3.63;;;;;;;;;;4977279;28;20224;-60
2023/07/17 02:51:27;;;;;;;9.00;3.63;;;;;;;;;;4976847;28;20217;-59
2023/07/17 02:53:53;;;;;;;7.88;3.53;;;;;;;;;;4977966;28;20296;-59
2023/07/17 02:56:18;;;;;;;7.90;3.50;;;;;;;;;;4971931;28;20217;-59
2023/07/17 02:58:43;;;;;;;8.77;3.55;;;;;;;;;;4969777;28;20244;-59
2023/07/17 03:01:10;;;;;;;10.65;3.72;;;;;;;;;;4950338;28;20532;-59
2023/07/17 03:03:35;;;;;;;7.10;3.95;;;;;;;;;;4974731;28;20328;-59
2023/07/17 03:06:00;;;;;;;10.32;3.50;;;;;;;;;;4977866;28;20683;-60
2023/07/17 03:08:26;;;;;;;8.57;3.50;;;;;;;;;;4976195;28;20315;-59
2023/07/17 03:10:52;;;;;;;6.28;3.40;;;;;;;;;;4977160;28;20271;-59
2023/07/17 03:13:20;;;;;;;9.18;3.78;;;;;;;;;;4977580;28;20256;-59
2023/07/17 03:15:45;;;;;;;8.88;3.03;;;;;;;;;;4977207;28;20598;-59
2023/07/17 03:18:10;;;;;;;9.32;3.80;;;;;;;;;;4976425;28;20704;-59
2023/07/17 03:20:38;;;;;;;6.85;3.20;;;;;;;;;;4974365;28;20213;-59
2023/07/17 03:23:03;;;;;;;8.38;3.50;;;;;;;;;;4955648;28;20292;-59
2023/07/17 03:25:29;;;;;;;9.07;3.50;;;;;;;;;;4974381;28;20756;-59
2023/07/17 03:27:54;;;;;;;9.13;3.80;;;;;;;;;;4982263;28;22678;-59
2023/07/17 03:30:19;;;;;;;8.18;4.00;;;;;;;;;;4980820;28;20636;-59
2023/07/17 03:32:45;;;;;;;9.30;3.42;;;;;;;;;;4979493;28;20327;-58
2023/07/17 03:35:10;;;;;;;8.13;3.65;;;;;;;;;;4980822;28;20826;-59
2023/07/17 03:37:36;;;;;;;10.77;4.10;;;;;;;;;;4981566;28;20568;-59
2023/07/17 03:40:01;;;;;;;7.65;3.30;;;;;;;;;;4979519;28;20220;-59
2023/07/17 03:42:26;;;;;;;8.38;3.35;;;;;;;;;;4955082;28;20647;-59
2023/07/17 03:44:52;;;;;;;8.25;3.50;;;;;;;;;;4973606;28;20239;-59
2023/07/17 03:47:17;;;;;;;7.78;3.55;;;;;;;;;;4972866;28;20263;-59
2023/07/17 03:49:42;;;;;;;8.55;3.65;;;;;;;;;;4978892;28;20221;-59
2023/07/17 03:52:08;;;;;;;10.60;3.60;;;;;;;;;;4980327;28;20439;-59
2023/07/17 03:54:33;;;;;;;10.23;4.18;;;;;;;;;;4982601;28;20573;-59
2023/07/17 03:56:58;;;;;;;8.25;3.58;;;;;;;;;;4984774;28;20696;-59
2023/07/17 03:59:24;;;;;;;9.25;3.22;;;;;;;;;;4983626;28;20232;-59
2023/07/17 04:01:49;;;;;;;8.48;3.28;;;;;;;;;;4983393;28;20728;-59
2023/07/17 04:04:15;;;;;;;7.85;3.10;;;;;;;;;;4977846;28;20221;-59
2023/07/17 04:06:40;;;;;;;9.65;3.75;;;;;;;;;;4975421;28;20292;-59
2023/07/17 04:09:05;;;;;;;8.88;3.67;;;;;;;;;;4975302;28;20228;-59
2023/07/17 04:11:31;;;;;;;7.40;3.22;;;;;;;;;;4981616;28;20279;-59
2023/07/17 04:13:56;;;;;;;8.63;3.53;;;;;;;;;;4982841;28;20209;-58
2023/07/17 04:16:25;;;;;;;9.68;3.92;;;;;;;;;;4982835;28;20232;-58
2023/07/17 04:18:50;;;;;;;8.68;3.80;;;;;;;;;;4966321;28;20593;-58
2023/07/17 04:21:15;;;;;;;11.23;3.30;;;;;;;;;;4982116;28;20201;-58
2023/07/17 04:23:41;;;;;;;9.18;3.45;;;;;;;;;;4983523;28;20219;-58
2023/07/17 04:26:06;;;;;;;10.25;3.88;;;;;;;;;;4979311;28;20216;-58
2023/07/17 04:28:32;;;;;;;11.27;3.80;;;;;;;;;;4974715;28;20546;-58
2023/07/17 04:30:57;;;;;;;10.75;3.60;;;;;;;;;;4975380;28;20704;-58
2023/07/17 04:33:22;;;;;;;11.32;3.95;;;;;;;;;;4978665;28;20691;-58
2023/07/17 04:35:48;;;;;;;11.00;3.25;;;;;;;;;;4980354;28;20213;-58
2023/07/17 04:38:13;;;;;;;14.30;3.80;;;;;;;;;;4980261;28;20213;-58
2023/07/17 04:40:38;;;;;;;11.75;4.43;;;;;;;;;;4978984;28;20220;-58
2023/07/17 04:43:04;;;;;;;14.70;4.22;;;;;;;;;;4979341;28;20221;-59
2023/07/17 04:45:29;;;;;;;13.13;3.83;;;;;;;;;;4980600;28;20225;-58
2023/07/17 04:47:55;;;;;;;10.45;4.22;;;;;;;;;;4977237;28;20236;-58
2023/07/17 04:50:22;;;;;;;10.52;4.13;;;;;;;;;;4971420;28;20630;-58
2023/07/17 04:52:47;;;;;;;10.98;3.60;;;;;;;;;;4972339;28;20221;-58
2023/07/17 04:55:13;;;;;;;12.30;4.55;;;;;;;;;;4971849;28;20263;-59
2023/07/17 04:57:38;;;;;;;10.93;3.85;;;;;;;;;;4978315;28;20311;-58
2023/07/17 05:00:05;;;;;;;10.35;3.80;;;;;;;;;;4979951;28;20205;-58
2023/07/17 05:02:30;;;;;;;9.93;3.80;;;;;;;;;;4979213;28;20628;-58
2023/07/17 05:04:56;;;;;;;12.00;4.28;;;;;;;;;;4973572;28;20221;-58
2023/07/17 05:07:21;;;;;;;13.15;4.20;;;;;;;;;;4971202;28;20591;-58
2023/07/17 05:09:46;;;;;;;9.50;4.40;;;;;;;;;;4972697;28;20229;-58
2023/07/17 05:12:12;;;;;;;11.27;3.97;;;;;;;;;;4979204;28;20244;-59
2023/07/17 05:14:37;;;;;;;10.47;4.37;;;;;;;;;;4977699;28;20425;-59
2023/07/17 05:17:03;;;;;;;11.13;3.90;;;;;;;;;;4978318;28;20213;-59
2023/07/17 05:19:28;;;;;;;13.20;4.30;;;;;;;;;;4978996;28;20436;-59
2023/07/17 05:21:53;;;;;;;11.65;4.43;;;;;;;;;;4977368;28;20213;-58
2023/07/17 05:24:19;;;;;;;13.10;4.85;;;;;;;;;;4976959;28;20221;-58
2023/07/17 05:26:44;;;;;;;9.95;4.78;;;;;;;;;;4976318;28;20276;-58
2023/07/17 05:29:09;;;;;;;14.40;5.10;;;;;;;;;;4971340;28;20233;-58
2023/07/17 05:31:34;;;;;;;13.13;5.00;;;;;;;;;;4969065;28;20217;-58
2023/07/17 05:34:00;;;;;;;10.90;4.70;;;;;;;;;;4975068;28;20308;-58
2023/07/17 05:36:25;;;;;;;14.90;5.20;;;;;;;;;;4978392;28;20792;-58
2023/07/17 05:38:50;;;;;;;12.52;4.85;;;;;;;;;;4972134;28;20546;-59
2023/07/17 05:41:16;;;;;;;11.00;4.70;;;;;;;;;;4977821;28;20775;-59
2023/07/17 05:43:41;;;;;;;13.38;5.00;;;;;;;;;;4979242;28;20224;-59
2023/07/17 05:46:06;;;;;;;14.63;5.70;;;;;;;;;;4975836;28;20225;-59
2023/07/17 05:48:32;;;;;;;15.77;5.72;;;;;;;;;;4976286;28;20684;-59
2023/07/17 05:50:57;;;;;;;10.43;4.82;;;;;;;;;;4971531;28;20252;-59
2023/07/17 05:53:22;;;;;;;10.68;5.10;;;;;;;;;;4970039;28;20316;-59
2023/07/17 05:55:48;;;;;;;13.60;5.28;;;;;;;;;;4969895;28;20231;-59
2023/07/17 05:58:13;;;;;;;13.13;6.10;;;;;;;;;;4978147;28;20688;-59
2023/07/17 06:00:39;;;;;;;12.70;5.90;;;;;;;;;;4977663;28;20432;-59
2023/07/17 06:03:04;;;;;;;13.18;5.65;;;;;;;;;;4977059;28;20263;-59
2023/07/17 06:05:29;;;;;;;13.68;5.75;;;;;;;;;;4982935;28;20209;-58
2023/07/17 06:07:54;;;;;;;12.65;5.50;;;;;;;;;;4987179;28;20232;-59
2023/07/17 06:10:20;;;;;;;13.02;5.95;;;;;;;;;;4987021;28;20232;-59
2023/07/17 06:12:45;;;;;;;16.35;6.32;;;;;;;;;;4985672;28;20228;-59
2023/07/17 06:15:13;;;;;;;13.27;6.20;;;;;;;;;;4988275;28;20259;-59
2023/07/17 06:17:38;;;;;;;14.13;6.30;;;;;;;;;;4988736;28;20308;-59
2023/07/17 06:20:05;;;;;;;13.07;6.97;;;;;;;;;;4985104;28;20216;-58
2023/07/17 06:22:30;;;;;;;15.45;6.50;;;;;;;;;;4988243;28;20209;-58
2023/07/17 06:24:55;;;;;;;15.15;7.53;;;;;;;;;;4988632;28;20233;-58
2023/07/17 06:27:21;;;;;;;14.90;6.78;;;;;;;;;;4985749;28;20271;-57
2023/07/17 06:29:46;;;;;;;15.52;7.38;;;;;;;;;;4987487;28;20676;-57
2023/07/17 06:32:11;;;;;;;13.35;6.43;;;;;;;;;;4988084;28;20744;-57
2023/07/17 06:34:37;;;;;;;17.58;7.30;;;;;;;;;;4987125;28;20276;-57
2023/07/17 06:37:03;;;;;;;18.83;7.05;;;;;;;;;;4985916;28;20220;-58
2023/07/17 06:39:28;;;;;;;20.08;7.57;;;;;;;;;;4988345;28;20224;-58
2023/07/17 06:41:55;;;;;;;17.27;7.35;;;;;;;;;;4987170;28;20209;-58
2023/07/17 06:44:20;;;;;;;14.13;7.60;;;;;;;;;;4985576;28;20700;-58
2023/07/17 06:46:45;;;;;;;16.27;7.30;;;;;;;;;;4987841;28;20256;-59
2023/07/17 06:49:10;;;;;;;15.23;6.97;;;;;;;;;;4986815;28;20233;-59
2023/07/17 06:51:36;;;;;;;18.92;7.68;;;;;;;;;;4989692;28;20259;-59
2023/07/17 06:54:01;;;;;;;16.75;7.93;;;;;;;;;;4990397;28;20307;-59
2023/07/17 06:56:27;;;;;;;16.33;7.90;;;;;;;;;;4991149;28;20688;-58
2023/07/17 06:58:52;;;;;;;15.43;7.70;;;;;;;;;;4990994;28;20287;-58
2023/07/17 07:01:17;;;;;;;15.82;7.72;;;;;;;;;;4989461;28;20295;-59
2023/07/17 07:03:43;;;;;;;16.40;7.25;;;;;;;;;;4991121;28;20287;-58
2023/07/17 07:06:08;;;;;;;17.17;8.25;;;;;;;;;;4990913;28;20299;-59
2023/07/17 07:08:34;;;;;;;18.52;7.93;;;;;;;;;;4989976;28;20321;-58
2023/07/17 07:11:00;;;;;;;14.43;6.82;;;;;;;;;;4990274;28;20256;-58
2023/07/17 07:13:25;;;;;;;20.13;7.35;;;;;;;;;;4990807;28;20213;-58
2023/07/17 07:15:50;;;;;;;15.75;7.25;;;;;;;;;;4990890;28;20205;-58
2023/07/17 07:18:16;;;;;;;16.42;7.43;;;;;;;;;;4988683;28;20216;-58
2023/07/17 07:20:41;;;;;;;14.32;6.90;;;;;;;;;;4974405;28;20223;-58
2023/07/17 07:23:07;;;;;;;16.17;7.10;;;;;;;;;;4990171;28;20213;-59
2023/07/17 07:25:33;;;;;;;17.40;7.83;;;;;;;;;;4988473;28;20512;-58
2023/07/17 07:28:00;;;;;;;13.93;7.03;;;;;;;;;;4973314;28;20221;-58
2023/07/17 07:30:25;;;;;;;16.33;8.10;;;;;;;;;;4990234;28;20339;-57
2023/07/17 07:32:50;;;;;;;17.38;7.50;;;;;;;;;;4990410;28;20351;-58
2023/07/17 07:35:16;;;;;;;15.75;7.47;;;;;;;;;;4989758;28;20300;-58
2023/07/17 07:37:41;;;;;;;17.30;7.53;;;;;;;;;;4990018;28;20352;-58
2023/07/17 07:40:10;;;;;;;17.50;7.07;;;;;;;;;;4990377;28;20292;-58
2023/07/17 07:42:35;;;;;;;17.50;7.35;;;;;;;;;;4985515;28;20241;-58
2023/07/17 07:45:01;;;;;;;21.95;7.68;;;;;;;;;;4988105;28;20279;-60
2023/07/17 07:47:26;;;;;;;19.77;7.57;;;;;;;;;;4991124;28;20327;-58
2023/07/17 07:49:51;;;;;;;15.00;7.18;;;;;;;;;;4971460;28;20311;-58
2023/07/17 07:52:17;;;;;;;15.95;7.25;;;;;;;;;;4989455;28;20241;-59
2023/07/17 07:54:43;;;;;;;16.58;7.15;;;;;;;;;;4991032;28;20668;-58
2023/07/17 07:57:09;;;;;;;21.05;6.82;;;;;;;;;;4989307;28;20208;-59
2023/07/17 07:59:34;;;;;;;15.00;6.47;;;;;;;;;;4989162;28;20206;-58
2023/07/17 08:01:59;;;;;;;14.85;6.60;;;;;;;;;;4990507;28;20634;-58
2023/07/17 08:04:25;;;;;;;13.18;5.72;;;;;;;;;;4989964;28;20623;-58
2023/07/17 08:06:50;;;;;;;13.23;6.00;;;;;;;;;;4987741;28;20241;-58
2023/07/17 08:09:16;;;;;;;12.77;5.95;;;;;;;;;;4989975;28;20348;-58
2023/07/17 08:11:42;;;;;;;12.80;6.18;;;;;;;;;;4990721;28;20232;-58
2023/07/17 08:14:07;;;;;;;15.90;6.15;;;;;;;;;;4987385;28;20224;-58
2023/07/17 08:16:32;;;;;;;12.02;5.90;;;;;;;;;;4989608;28;20217;-58
2023/07/17 08:18:58;;;;;;;11.05;5.07;;;;;;;;;;4990730;28;20227;-58
2023/07/17 08:21:23;;;;;;;13.05;5.28;;;;;;;;;;4988419;28;20217;-59
2023/07/17 08:23:48;;;;;;;12.45;5.60;;;;;;;;;;4988757;28;20304;-59
2023/07/17 08:26:13;;;;;;;13.30;5.72;;;;;;;;;;4989350;28;20242;-59
2023/07/17 08:28:39;;;;;;;12.82;5.03;;;;;;;;;;4989663;28;20225;-58
2023/07/17 08:31:04;;;;;;;12.77;5.60;;;;;;;;;;4987361;28;20213;-59
2023/07/17 08:33:29;;;;;;;14.25;5.35;;;;;;;;;;4989298;28;20217;-59
2023/07/17 08:35:55;;;;;;;11.38;5.30;;;;;;;;;;4990186;28;20236;-59
2023/07/17 08:38:20;;;;;;;13.40;5.20;;;;;;;;;;4988384;28;20225;-59
2023/07/17 08:40:49;;;;;;;14.38;5.05;;;;;;;;;;4988786;28;20323;-60
2023/07/17 08:43:14;;;;;;;15.40;5.03;;;;;;;;;;4991140;28;20248;-60
2023/07/17 08:45:39;;;;;;;12.98;5.40;;;;;;;;;;4969063;28;20245;-59
2023/07/17 08:48:05;;;;;;;11.55;5.07;;;;;;;;;;4983861;28;20887;-59
2023/07/17 08:50:30;;;;;;;11.98;4.90;;;;;;;;;;4983534;28;20216;-59
2023/07/17 08:52:55;;;;;;;11.98;4.93;;;;;;;;;;4986064;28;20270;-59
2023/07/17 08:55:21;;;;;;;13.57;5.05;;;;;;;;;;4986106;28;20263;-59
2023/07/17 08:57:46;;;;;;;13.98;5.10;;;;;;;;;;4989936;28;20224;-59
2023/07/17 09:00:15;;;;;;;11.15;4.60;;;;;;;;;;4983674;28;20215;-59
2023/07/17 09:02:41;;;;;;;16.30;4.97;;;;;;;;;;4981979;28;20252;-59
2023/07/17 09:05:07;;;;;;;13.80;4.95;;;;;;;;;;4981547;28;20221;-60
2023/07/17 09:07:32;;;;;;;9.90;4.32;;;;;;;;;;4988750;28;20209;-60
2023/07/17 09:10:14;;;;;;;10.57;4.00;;;;;;;;;;4988689;28;20323;-60
2023/07/17 09:12:41;;;;;;;11.88;4.20;;;;;;;;;;4987357;28;20309;-60
2023/07/17 09:15:06;;;;;;;10.57;4.40;;;;;;;;;;4987827;28;20225;-60
2023/07/17 09:17:32;;;;;;;11.25;4.60;;;;;;;;;;4988317;28;20217;-60
2023/07/17 09:20:10;;;;;;;11.02;4.63;;;;;;;;;;4988643;28;20225;-60
2023/07/17 09:22:37;;;;;;;9.13;4.03;;;;;;;;;;4987097;28;20580;-60
2023/07/17 09:25:03;;;;;;;11.98;4.20;;;;;;;;;;4988809;28;20308;-60
2023/07/17 09:27:28;;;;;;;12.88;4.00;;;;;;;;;;4989476;28;20684;-60
2023/07/17 09:29:53;;;;;;;10.07;3.75;;;;;;;;;;4985097;28;20304;-60
2023/07/17 09:32:19;;;;;;;10.50;3.88;;;;;;;;;;4988462;28;20221;-60
2023/07/17 09:34:49;;;;;;;10.00;4.05;;;;;;;;;;4989594;28;20213;-60
2023/07/17 09:37:14;;;;;;;9.98;3.67;;;;;;;;;;4987111;28;20272;-60
2023/07/17 09:39:40;;;;;;;11.68;3.83;;;;;;;;;;4987900;28;20700;-60
2023/07/17 09:42:09;;;;;;;10.93;3.80;;;;;;;;;;4988182;28;20213;-59
2023/07/17 09:44:35;;;;;;;10.27;4.05;;;;;;;;;;4971045;28;20237;-60
2023/07/17 09:47:00;;;;;;;10.40;3.63;;;;;;;;;;4986555;28;20614;-60
2023/07/17 09:49:25;;;;;;;8.45;3.38;;;;;;;;;;4971292;28;20321;-60
2023/07/17 09:51:50;;;;;;;9.25;3.72;;;;;;;;;;4970693;28;20328;-60
2023/07/17 09:54:16;;;;;;;9.00;3.53;;;;;;;;;;4969333;28;20213;-60
2023/07/17 09:56:42;;;;;;;9.32;3.50;;;;;;;;;;4987774;28;20220;-61
2023/07/17 09:59:08;;;;;;;7.15;3.40;;;;;;;;;;4987657;28;20213;-60
2023/07/17 10:01:34;;;;;;;8.48;3.60;;;;;;;;;;4967840;28;20214;-60
2023/07/17 10:03:59;;;;;;;8.65;3.50;;;;;;;;;;4984678;28;20224;-60
2023/07/17 10:06:24;;;;;;;9.27;3.70;;;;;;;;;;4987455;28;20205;-60
2023/07/17 10:08:50;;;;;;;9.27;3.55;;;;;;;;;;4988803;28;20225;-60
2023/07/17 10:11:16;;;;;;;9.18;3.53;;;;;;;;;;4985829;28;20295;-60
2023/07/17 10:13:42;;;;;;;9.00;3.42;;;;;;;;;;4987745;28;20280;-60
2023/07/17 10:16:07;;;;;;;10.45;3.92;;;;;;;;;;4988017;28;20227;-60
2023/07/17 10:18:33;;;;;;;10.93;4.00;;;;;;;;;;4987698;28;20221;-60
2023/07/17 10:20:59;;;;;;;7.88;3.30;;;;;;;;;;4986497;28;20220;-60
2023/07/17 10:23:25;;;;;;;11.68;3.38;;;;;;;;;;4970936;28;20213;-60
2023/07/17 10:25:51;;;;;;;9.93;3.47;;;;;;;;;;4987916;28;20263;-60
2023/07/17 10:28:28;;;;;;;8.07;3.72;;;;;;;;;;4984824;28;20224;-60
2023/07/17 10:30:53;;;;;;;14.20;3.95;;;;;;;;;;4988521;28;20209;-60
2023/07/17 10:33:20;;;;;;;9.75;4.07;;;;;;;;;;4987255;28;20681;-60
2023/07/17 10:35:45;;;;;;;11.75;3.95;;;;;;;;;;4987277;28;20216;-60
2023/07/17 10:38:11;;;;;;;10.48;4.00;;;;;;;;;;4986915;28;20209;-60
2023/07/17 10:40:36;;;;;;;11.43;3.55;;;;;;;;;;4987628;28;20228;-60
2023/07/17 10:43:15;;;;;;;9.68;4.10;;;;;;;;;;4987594;28;20292;-60
2023/07/17 10:45:40;;;;;;;12.73;4.10;;;;;;;;;;4985816;28;20869;-60
2023/07/17 10:48:06;;;;;;;10.82;3.72;;;;;;;;;;4987158;28;20309;-60
2023/07/17 10:50:32;;;;;;;11.65;3.78;;;;;;;;;;4988554;28;20218;-60
2023/07/17 10:53:03;;;;;;;9.98;4.00;;;;;;;;;;4986992;28;20551;-60
2023/07/17 10:55:29;;;;;;;10.20;3.40;;;;;;;;;;4985973;28;20548;-60
2023/07/17 10:57:55;;;;;;;7.60;2.40;;;;;;;;;;4990248;28;20291;-60
2023/07/17 11:00:20;;;;;;;6.03;1.75;;;;;;;;;;4989483;28;20245;-60
2023/07/17 11:02:46;;;;;;;3.72;1.50;;;;;;;;;;4986569;28;20574;-60
2023/07/17 11:05:11;;;;;;;4.57;1.52;;;;;;;;;;4988888;28;20267;-60
2023/07/17 11:07:36;;;;;;;5.22;1.95;;;;;;;;;;4991313;28;20213;-61
2023/07/17 11:10:02;;;;;;;3.83;2.03;;;;;;;;;;4985286;28;20268;-61
2023/07/17 11:12:27;;;;;;;4.43;1.70;;;;;;;;;;4970523;28;20225;-61
2023/07/17 11:14:52;;;;;;;6.45;1.88;;;;;;;;;;4987646;28;20217;-60
2023/07/17 11:17:18;;;;;;;6.50;1.83;;;;;;;;;;4985035;28;20263;-60
2023/07/17 11:19:44;;;;;;;5.45;1.77;;;;;;;;;;4987984;28;20574;-60
2023/07/17 11:22:09;;;;;;;5.22;1.65;;;;;;;;;;4987262;28;20221;-60
2023/07/17 11:24:35;;;;;;;6.68;1.77;;;;;;;;;;4985283;28;20228;-60
2023/07/17 11:27:00;;;;;;;4.63;1.55;;;;;;;;;;4987536;28;20213;-60
2023/07/17 11:29:26;;;;;;;5.18;1.95;;;;;;;;;;4969252;28;20226;-61
2023/07/17 11:31:59;;;;;;;4.35;1.50;;;;;;;;;;4986646;28;20256;-61
2023/07/17 11:34:24;;;;;;;4.03;1.70;;;;;;;;;;4986133;28;20605;-61
2023/07/17 11:36:50;;;;;;;4.78;1.80;;;;;;;;;;4987058;28;20220;-61
2023/07/17 11:39:16;;;;;;;6.55;1.95;;;;;;;;;;4991034;28;20677;-60
2023/07/17 11:41:48;;;;;;;4.30;2.20;;;;;;;;;;4993270;28;20211;-61
2023/07/17 11:44:14;;;;;;;5.57;2.35;;;;;;;;;;4991198;28;20296;-60
2023/07/17 11:46:40;;;;;;;5.85;2.25;;;;;;;;;;4990856;28;20296;-60
2023/07/17 11:49:05;;;;;;;6.10;2.30;;;;;;;;;;4989356;28;20229;-60
2023/07/17 11:51:31;;;;;;;4.38;2.10;;;;;;;;;;4990749;28;20220;-60
2023/07/17 11:53:56;;;;;;;6.90;2.17;;;;;;;;;;4990808;28;20221;-60
2023/07/17 11:56:32;;;;;;;7.35;2.08;;;;;;;;;;4988520;28;20225;-60
2023/07/17 11:58:58;;;;;;;7.72;2.28;;;;;;;;;;4990269;28;20275;-60
2023/07/17 12:01:23;;;;;;;6.93;2.17;;;;;;;;;;4990897;28;20304;-60
2023/07/17 12:03:48;;;;;;;8.23;2.20;;;;;;;;;;4989517;28;20219;-60
2023/07/17 12:06:14;;;;;;;6.22;2.38;;;;;;;;;;4988714;28;20579;-60
2023/07/17 12:08:41;;;;;;;5.13;2.10;;;;;;;;;;4990775;28;20669;-60
2023/07/17 12:11:06;;;;;;;6.55;2.40;;;;;;;;;;4989729;28;20248;-61
2023/07/17 12:13:31;;;;;;;7.13;2.58;;;;;;;;;;4987674;28;20201;-60
2023/07/17 12:15:57;;;;;;;8.88;2.88;;;;;;;;;;4990877;28;20256;-60
2023/07/17 12:18:22;;;;;;;7.05;2.70;;;;;;;;;;4990093;28;20359;-60
2023/07/17 12:20:48;;;;;;;8.02;2.90;;;;;;;;;;4988203;28;20296;-60
2023/07/17 12:23:14;;;;;;;6.32;2.40;;;;;;;;;;4989668;28;20213;-61
2023/07/17 12:25:42;;;;;;;6.57;2.53;;;;;;;;;;4990092;28;20241;-61
2023/07/17 12:28:07;;;;;;;9.00;2.60;;;;;;;;;;4988501;28;20672;-60
2023/07/17 12:30:32;;;;;;;5.00;2.90;;;;;;;;;;4988870;28;20258;-60
2023/07/17 12:32:58;;;;;;;7.38;2.95;;;;;;;;;;4989795;28;20217;-60
2023/07/17 12:35:23;;;;;;;12.35;3.55;;;;;;;;;;4989934;28;20676;-60
2023/07/17 12:37:48;;;;;;;10.73;3.45;;;;;;;;;;4988124;28;20870;-60
2023/07/17 12:40:14;;;;;;;9.90;3.40;;;;;;;;;;4989505;28;20252;-60
2023/07/17 12:42:39;;;;;;;9.77;3.95;;;;;;;;;;4990018;28;20368;-60
2023/07/17 12:45:05;;;;;;;8.15;3.35;;;;;;;;;;4987884;28;20720;-60
2023/07/17 12:47:30;;;;;;;8.30;3.72;;;;;;;;;;4988830;28;20240;-61
2023/07/17 12:49:57;;;;;;;10.93;3.92;;;;;;;;;;4990208;28;20304;-60
2023/07/17 12:52:24;;;;;;;9.02;3.75;;;;;;;;;;4988690;28;20213;-60
2023/07/17 12:54:49;;;;;;;10.68;3.90;;;;;;;;;;4987638;28;20260;-60
2023/07/17 12:57:14;;;;;;;8.88;3.83;;;;;;;;;;4989586;28;20233;-60
2023/07/17 12:59:40;;;;;;;9.63;4.47;;;;;;;;;;4989625;28;20373;-60
2023/07/17 13:02:05;;;;;;;8.73;4.05;;;;;;;;;;4986453;28;20221;-60
2023/07/17 13:04:30;;;;;;;9.45;4.00;;;;;;;;;;4989737;28;20307;-61
2023/07/17 13:06:56;;;;;;;10.98;4.57;;;;;;;;;;4989947;28;20217;-60
2023/07/17 13:09:21;;;;;;;11.25;4.78;;;;;;;;;;4987174;28;20363;-60
2023/07/17 13:11:46;;;;;;;8.23;4.25;;;;;;;;;;4988869;28;20588;-61
2023/07/17 13:14:12;;;;;;;10.18;4.40;;;;;;;;;;4989018;28;20216;-61
2023/07/17 13:16:37;;;;;;;10.05;4.28;;;;;;;;;;4988284;28;20340;-60
2023/07/17 13:19:02;;;;;;;10.20;4.00;;;;;;;;;;4987088;28;20300;-60
2023/07/17 13:21:29;;;;;;;7.63;3.92;;;;;;;;;;4989667;28;20205;-60
2023/07/17 13:23:54;;;;;;;10.43;4.30;;;;;;;;;;4988958;28;20347;-61
2023/07/17 13:26:26;;;;;;;11.90;4.85;;;;;;;;;;4969565;28;20311;-61
2023/07/17 13:28:52;;;;;;;13.45;5.47;;;;;;;;;;4987933;28;20716;-62
2023/07/17 13:31:17;;;;;;;7.35;3.33;;;;;;;;;;4986440;28;20217;-64
2023/07/17 13:33:43;;;;;;;9.82;3.78;;;;;;;;;;4976678;28;20520;-63
2023/07/17 13:36:08;;;;;;;9.48;4.00;;;;;;;;;;4973559;28;20574;-62
2023/07/17 13:38:33;;;;;;;11.07;4.60;;;;;;;;;;4975994;28;20213;-62
2023/07/17 13:40:58;;;;;;;10.48;4.55;;;;;;;;;;4980468;28;20758;-62
2023/07/17 13:43:24;;;;;;;10.45;4.88;;;;;;;;;;4979289;28;20213;-62
2023/07/17 13:45:50;;;;;;;10.95;5.13;;;;;;;;;;4982967;28;20320;-62
2023/07/17 13:48:18;;;;;;;10.40;5.20;;;;;;;;;;4982677;28;20681;-62
2023/07/17 13:50:44;;;;;;;11.73;5.47;;;;;;;;;;4980943;28;20217;-61
2023/07/17 13:53:09;;;;;;;11.63;5.45;;;;;;;;;;4964221;28;20279;-61
2023/07/17 13:55:34;;;;;;;10.68;5.45;;;;;;;;;;4980254;28;20215;-61
2023/07/17 13:57:59;;;;;;;11.82;5.50;;;;;;;;;;4974249;28;20571;-61
2023/07/17 14:00:27;;;;;;;10.55;4.95;;;;;;;;;;4972364;28;20217;-61
2023/07/17 14:02:53;;;;;;;9.95;4.82;;;;;;;;;;4977672;28;20197;-61
2023/07/17 14:05:18;;;;;;;9.63;4.85;;;;;;;;;;4981879;28;20221;-61
2023/07/17 14:07:43;;;;;;;10.77;5.20;;;;;;;;;;4981157;28;20252;-61
2023/07/17 14:10:09;;;;;;;10.80;4.55;;;;;;;;;;4981813;28;20370;-61
2023/07/17 14:12:34;;;;;;;10.00;5.07;;;;;;;;;;4982382;28;20693;-61
2023/07/17 14:14:59;;;;;;;8.98;4.57;;;;;;;;;;4981378;28;20206;-61
2023/07/17 14:17:25;;;;;;;9.43;4.75;;;;;;;;;;4981010;28;20268;-61
2023/07/17 14:19:50;;;;;;;9.60;4.80;;;;;;;;;;4974011;28;20820;-61
2023/07/17 14:22:15;;;;;;;9.40;4.43;;;;;;;;;;4974039;28;20327;-61
2023/07/17 14:24:41;;;;;;;10.27;4.50;;;;;;;;;;4974062;28;20248;-61
2023/07/17 14:27:06;;;;;;;10.85;4.50;;;;;;;;;;4980666;28;20312;-61